Time;durP1;ratioP1;P1;durP2;ratioP2;P2;SDS_P1;SDS_P2;PMS_P1;PMS_P2;Temp;Humidity;BMP_temperature;BMP_pressure;BME280_temperature;BME280_humidity;BME280_pressure;Samples;Min_cycle;Max_cycle;Signal;HPM_P1;HPM_P2
2022/08/02 00:00:58;;;;;;;5.50;2.30;;;;;;;22.76;59.11;101323.75;5074856;28;20506;-67
2022/08/02 00:03:25;;;;;;;3.50;2.17;;;;;;;22.45;59.57;101323.28;5075108;28;20044;-67
2022/08/02 00:05:53;;;;;;;7.78;2.40;;;;;;;22.54;59.72;101321.00;5078950;28;20071;-67
2022/08/02 00:08:21;;;;;;;4.97;2.53;;;;;;;22.49;59.82;101326.94;5077202;28;20052;-67
2022/08/02 00:10:48;;;;;;;4.22;2.30;;;;;;;22.64;59.67;101324.00;5074800;28;20053;-68
2022/08/02 00:13:15;;;;;;;5.60;2.53;;;;;;;22.46;59.74;101327.69;5075335;28;20049;-68
2022/08/02 00:15:43;;;;;;;5.55;2.65;;;;;;;22.68;60.13;101326.84;5075187;28;20063;-67
2022/08/02 00:18:10;;;;;;;5.10;2.25;;;;;;;22.84;58.76;101325.47;5075080;28;20066;-67
2022/08/02 00:20:37;;;;;;;4.05;2.10;;;;;;;22.69;59.24;101326.47;5074016;28;20060;-67
2022/08/02 00:23:05;;;;;;;5.72;2.70;;;;;;;22.76;58.99;101323.75;5074910;28;20056;-67
2022/08/02 00:25:32;;;;;;;7.00;3.58;;;;;;;22.82;58.64;101324.25;5074574;28;20055;-67
2022/08/02 00:28:00;;;;;;;6.13;3.20;;;;;;;22.86;58.66;101316.66;5075463;28;20544;-67
2022/08/02 00:30:28;;;;;;;7.57;2.83;;;;;;;22.91;58.22;101313.53;5075361;28;20051;-66
2022/08/02 00:32:55;;;;;;;5.13;2.60;;;;;;;22.78;58.87;101314.94;5075668;28;20048;-67
2022/08/02 00:35:22;;;;;;;9.40;2.38;;;;;;;22.60;59.50;101319.50;5074863;28;20052;-67
2022/08/02 00:37:50;;;;;;;6.68;2.50;;;;;;;22.64;59.30;101315.56;5077068;28;20517;-66
2022/08/02 00:40:22;;;;;;;5.20;2.70;;;;;;;22.86;58.89;101314.66;5079845;28;20052;-67
2022/08/02 00:43:09;;;;;;;5.00;2.22;;;;;;;22.70;59.02;101316.06;5075110;28;20048;-67
2022/08/02 00:45:38;;;;;;;4.60;2.30;;;;;;;22.57;59.60;101323.06;5074481;28;20048;-67
2022/08/02 00:48:25;;;;;;;5.57;2.45;;;;;;;22.52;59.33;101315.78;5074740;28;20053;-67
2022/08/02 00:50:53;;;;;;;6.57;1.80;;;;;;;22.62;58.89;101319.94;5072633;28;20048;-67
2022/08/02 00:53:21;;;;;;;4.22;2.13;;;;;;;22.37;59.43;101324.38;5074799;28;20396;-67
2022/08/02 00:55:49;;;;;;;8.98;3.15;;;;;;;22.31;60.14;101318.28;5074824;28;20040;-68
2022/08/02 00:58:16;;;;;;;8.05;3.30;;;;;;;22.26;60.24;101332.63;5074865;28;20052;-68
2022/08/02 01:06:15;;;;;;;4.93;2.20;;;;;;;22.12;59.98;101323.97;5057136;28;20044;-67
2022/08/02 01:08:43;;;;;;;6.30;2.50;;;;;;;22.29;59.88;101329.06;5075169;28;20071;-68
2022/08/02 01:11:11;;;;;;;8.00;2.70;;;;;;;22.42;59.61;101327.63;5090651;28;20052;-68
2022/08/02 01:13:38;;;;;;;6.72;2.88;;;;;;;22.41;59.74;101314.81;5085126;28;20048;-68
2022/08/02 01:16:18;;;;;;;7.72;3.20;;;;;;;22.46;59.93;101320.09;5075256;28;20052;-68
2022/08/02 01:18:50;;;;;;;8.30;3.28;;;;;;;22.60;59.70;101319.50;5074984;28;20527;-67
2022/08/02 01:21:49;;;;;;;8.07;3.30;;;;;;;22.44;60.69;101321.66;5073718;28;20059;-68
2022/08/02 01:24:38;;;;;;;8.88;3.22;;;;;;;22.40;60.62;101332.03;5078166;28;20063;-68
2022/08/02 01:27:31;;;;;;;6.25;3.53;;;;;;;22.46;60.41;101327.69;5074629;28;20060;-68
2022/08/02 01:30:00;;;;;;;12.45;3.55;;;;;;;22.12;61.69;101330.38;5073794;28;20052;-67
2022/08/02 01:32:32;;;;;;;8.23;3.13;;;;;;;22.02;62.14;101330.25;5069883;28;20057;-67
2022/08/02 01:35:12;;;;;;;6.55;3.40;;;;;;;22.01;62.19;101331.41;5082702;28;20048;-68
2022/08/02 01:37:44;;;;;;;8.40;3.50;;;;;;;22.25;61.61;101329.00;5066849;28;20048;-70
2022/08/02 01:40:24;;;;;;;8.43;3.47;;;;;;;22.04;62.06;101336.25;5072982;28;20048;-67
2022/08/02 01:42:54;;;;;;;10.20;3.30;;;;;;;21.69;63.49;101339.25;5056023;28;20515;-67
2022/08/02 01:45:24;;;;;;;10.23;3.28;;;;;;;21.43;64.27;101339.16;5074829;28;20055;-67
2022/08/02 01:47:52;;;;;;;6.95;3.53;;;;;;;21.35;64.92;101337.41;5053025;28;20052;-67
2022/08/02 01:50:27;;;;;;;8.32;3.15;;;;;;;21.42;64.47;101333.91;5072537;28;20055;-66
2022/08/02 01:52:57;;;;;;;6.20;3.17;;;;;;;21.35;64.99;101333.78;5073694;28;20044;-67
2022/08/02 01:55:26;;;;;;;5.57;3.20;;;;;;;21.45;64.79;101334.00;5055838;28;20056;-67
2022/08/02 01:58:16;;;;;;;6.55;3.53;;;;;;;21.54;64.14;101328.97;5074177;28;20460;-68
2022/08/02 02:00:46;;;;;;;9.68;3.55;;;;;;;21.68;63.71;101326.41;5074647;28;20048;-68
2022/08/02 02:03:18;;;;;;;4.90;2.87;;;;;;;21.73;63.43;101323.28;5066479;28;20075;-67
2022/08/02 02:05:47;;;;;;;6.38;2.90;;;;;;;21.79;63.03;101323.81;5076952;28;20052;-67
2022/08/02 02:08:16;;;;;;;6.38;3.20;;;;;;;21.89;63.00;101321.22;5059680;28;20063;-67
2022/08/02 02:10:55;;;;;;;5.30;3.03;;;;;;;21.57;63.70;101325.41;5076128;28;20048;-67
2022/08/02 02:13:23;;;;;;;9.23;3.13;;;;;;;21.71;63.85;101324.84;5077758;28;20048;-69
2022/08/02 02:16:02;;;;;;;7.32;3.20;;;;;;;21.76;62.91;101318.94;5076805;28;20075;-68
2022/08/02 02:18:30;;;;;;;;;;;;;;;21.34;64.43;101324.56;5077134;28;20071;-67
2022/08/02 02:20:57;;;;;;;8.70;2.70;;;;;;;21.40;64.68;101308.25;5081662;28;19924;-67
2022/08/02 02:23:24;;;;;;;5.57;2.70;;;;;;;21.57;64.09;101305.78;5083925;28;20610;-67
2022/08/02 02:25:53;;;;;;;8.38;3.17;;;;;;;21.70;63.33;101300.78;5072100;28;20056;-67
2022/08/02 02:28:29;;;;;;;5.90;3.20;;;;;;;21.53;64.01;101299.28;5076898;28;20052;-67
2022/08/02 02:31:04;;;;;;;5.20;2.90;;;;;;;21.67;63.66;101312.78;5081573;28;20048;-67
2022/08/02 02:33:35;;;;;;;4.45;2.70;;;;;;;21.60;63.64;101313.44;5087541;28;20048;-69
2022/08/02 02:36:04;;;;;;;6.20;2.78;;;;;;;21.54;63.59;101308.50;5075762;28;20423;-67
2022/08/02 02:38:32;;;;;;;8.25;2.70;;;;;;;21.33;64.13;101308.13;5076082;28;20055;-68
2022/08/02 02:41:00;;;;;;;5.05;2.40;;;;;;;21.03;65.11;101310.72;5076001;28;20055;-67
2022/08/02 02:43:30;;;;;;;6.90;2.28;;;;;;;20.96;64.75;101311.38;5076414;28;20056;-68
2022/08/02 02:45:58;;;;;;;6.22;2.55;;;;;;;21.13;64.87;101307.34;5077433;28;20053;-68
2022/08/02 02:48:26;;;;;;;5.53;2.63;;;;;;;21.22;64.12;101308.72;5074487;28;20052;-68
2022/08/02 02:50:54;;;;;;;5.70;2.58;;;;;;;20.98;64.44;101305.41;5059209;28;20075;-67
2022/08/02 02:53:22;;;;;;;6.38;2.72;;;;;;;21.04;64.87;101306.78;5077144;28;20381;-67
2022/08/02 02:55:49;;;;;;;5.13;2.58;;;;;;;21.23;64.16;101303.94;5077727;28;20051;-66
2022/08/02 02:58:30;;;;;;;7.15;3.00;;;;;;;20.96;64.68;101310.56;5057626;28;20052;-67
2022/08/02 03:03:44;;;;;;;4.78;2.30;;;;;;;20.99;64.70;101305.06;5076633;28;20056;-67
2022/08/02 03:06:12;;;;;;;4.95;2.72;;;;;;;20.80;64.95;101298.63;5075603;28;20656;-67
2022/08/02 03:08:42;;;;;;;4.50;2.38;;;;;;;20.79;64.99;101305.41;5055356;28;20052;-67
2022/08/02 03:11:10;;;;;;;4.57;2.45;;;;;;;20.92;64.47;101304.09;5058879;28;20044;-67
2022/08/02 03:13:38;;;;;;;5.55;2.50;;;;;;;20.84;65.17;101302.31;5075553;28;20075;-67
2022/08/02 03:16:06;;;;;;;5.93;2.58;;;;;;;20.82;64.86;101301.84;5075472;28;20056;-67
2022/08/02 03:18:35;;;;;;;5.50;2.67;;;;;;;20.86;64.68;101297.97;5083245;28;20036;-67
2022/08/02 03:21:05;;;;;;;7.57;2.75;;;;;;;20.69;64.53;101295.63;5079000;28;20162;-67
2022/08/02 03:23:33;;;;;;;6.50;2.75;;;;;;;20.71;64.74;101306.44;5075526;28;20152;-67
2022/08/02 03:26:01;;;;;;;7.15;2.60;;;;;;;20.98;64.08;101306.25;5076701;28;20048;-67
2022/08/02 03:28:29;;;;;;;7.03;2.63;;;;;;;20.93;63.76;101300.91;5071249;28;20052;-67
2022/08/02 03:30:56;;;;;;;6.28;2.63;;;;;;;20.84;64.00;101307.91;5076308;28;20048;-67
2022/08/02 03:33:25;;;;;;;6.03;2.22;;;;;;;20.54;65.06;101296.47;5075320;28;20392;-67
2022/08/02 03:36:03;;;;;;;4.47;2.00;;;;;;;20.64;64.89;101303.50;5074772;28;20049;-66
2022/08/02 03:38:32;;;;;;;8.43;2.20;;;;;;;20.73;64.41;101304.09;5076656;28;20056;-67
2022/08/02 03:41:01;;;;;;;6.10;2.10;;;;;;;20.57;64.64;101301.34;5076317;28;20052;-67
2022/08/02 03:43:29;;;;;;;6.45;2.15;;;;;;;20.47;64.85;101296.31;5084834;28;20048;-67
2022/08/02 03:45:57;;;;;;;5.70;2.28;;;;;;;20.51;64.29;101297.22;5078470;28;20053;-67
2022/08/02 03:48:26;;;;;;;8.20;2.40;;;;;;;20.56;64.06;101294.13;5058280;28;20069;-67
2022/08/02 03:51:01;;;;;;;5.88;2.25;;;;;;;20.77;63.71;101302.97;5074359;28;20060;-67
2022/08/02 03:53:29;;;;;;;7.07;2.33;;;;;;;20.43;64.88;101298.22;5075218;28;20059;-67
2022/08/02 03:55:57;;;;;;;3.13;1.92;;;;;;;20.48;64.63;101292.34;5091485;28;20061;-67
2022/08/02 03:58:24;;;;;;;5.40;2.65;;;;;;;20.53;64.68;101291.22;5074584;28;20347;-67
2022/08/02 04:00:53;;;;;;;4.72;2.42;;;;;;;20.33;64.95;101282.00;5074494;28;20051;-67
2022/08/02 04:03:20;;;;;;;8.68;3.00;;;;;;;20.54;64.91;101288.06;5074224;28;20041;-68
2022/08/02 04:05:48;;;;;;;6.47;2.60;;;;;;;20.39;65.18;101290.91;5073907;28;20504;-67
2022/08/02 04:08:31;;;;;;;8.20;2.25;;;;;;;20.66;64.70;101290.72;5075895;28;20048;-68
2022/08/02 04:13:50;;;;;;;5.38;2.45;;;;;;;20.42;65.99;101299.41;5087156;28;20059;-68
2022/08/02 04:16:20;;;;;;;9.93;2.90;;;;;;;20.18;66.59;101282.84;5061300;28;20059;-68
2022/08/02 04:18:52;;;;;;;7.10;2.80;;;;;;;20.14;66.97;101285.53;5075729;28;20056;-68
2022/08/02 04:21:21;;;;;;;6.78;2.90;;;;;;;20.31;67.24;101289.16;5056872;28;20057;-67
2022/08/02 04:23:49;;;;;;;7.95;2.90;;;;;;;20.67;65.70;101283.16;5056472;28;20048;-68
2022/08/02 04:26:18;;;;;;;6.05;2.85;;;;;;;20.51;66.37;101288.81;5074431;28;20530;-67
2022/08/02 04:28:53;;;;;;;8.90;3.17;;;;;;;20.48;66.61;101286.75;5059089;28;20480;-67
2022/08/02 04:31:22;;;;;;;5.28;2.72;;;;;;;20.51;66.87;101290.78;5073923;28;20043;-67
2022/08/02 04:33:50;;;;;;;7.43;3.13;;;;;;;20.32;67.16;101299.97;5084563;28;20055;-67
2022/08/02 04:36:17;;;;;;;8.25;3.22;;;;;;;20.32;67.27;101299.16;5075895;28;20055;-67
2022/08/02 04:38:58;;;;;;;9.95;3.08;;;;;;;20.28;67.66;101293.47;5075117;28;20412;-67
2022/08/02 04:41:43;;;;;;;5.05;2.67;;;;;;;20.23;67.40;101290.97;5075055;28;20440;-67
2022/08/02 04:44:11;;;;;;;8.57;3.33;;;;;;;20.01;68.52;101292.41;5072906;28;20045;-67
2022/08/02 04:46:40;;;;;;;6.50;2.90;;;;;;;20.10;68.76;101300.63;5074330;28;20052;-67
2022/08/02 04:49:07;;;;;;;10.90;3.30;;;;;;;20.32;67.81;101311.16;5073963;28;20052;-67
2022/08/02 04:51:41;;;;;;;6.45;3.20;;;;;;;20.38;67.51;101303.31;5074643;28;20075;-67
2022/08/02 04:54:09;;;;;;;6.75;3.03;;;;;;;20.25;67.92;101304.56;5072505;28;20040;-66
2022/08/02 04:56:37;;;;;;;8.57;3.17;;;;;;;20.35;67.01;101298.41;5074568;28;20057;-66
2022/08/02 04:59:05;;;;;;;6.75;2.97;;;;;;;20.06;68.22;101296.91;5074804;28;20056;-66
2022/08/02 05:01:34;;;;;;;7.00;2.90;;;;;;;20.10;68.08;101295.81;5074587;28;20044;-67
2022/08/02 05:04:02;;;;;;;7.50;3.33;;;;;;;20.08;68.58;101295.38;5079049;28;20049;-67
2022/08/02 05:06:30;;;;;;;9.40;3.30;;;;;;;20.12;68.25;101292.66;5073676;28;20455;-67
2022/08/02 05:08:58;;;;;;;7.28;3.40;;;;;;;20.05;68.65;101292.47;5075015;28;20055;-67
2022/08/02 05:11:26;;;;;;;8.77;3.20;;;;;;;20.07;68.87;101290.97;5073055;28;20598;-67
2022/08/02 05:14:03;;;;;;;7.35;3.03;;;;;;;20.15;68.59;101291.94;5073386;28;20056;-67
2022/08/02 05:16:30;;;;;;;9.45;3.35;;;;;;;20.31;67.79;101295.53;5073544;28;20053;-67
2022/08/02 05:19:02;;;;;;;7.93;2.80;;;;;;;20.27;67.56;101296.63;5074605;28;20048;-67
2022/08/02 05:21:30;;;;;;;6.53;2.55;;;;;;;20.29;67.39;101299.88;5072707;28;20044;-68
2022/08/02 05:23:58;;;;;;;10.65;3.65;;;;;;;19.75;69.22;101303.34;5080859;28;20045;-68
2022/08/02 05:26:25;;;;;;;7.82;2.90;;;;;;;19.71;69.38;101305.25;5060050;28;20056;-68
2022/08/02 05:28:52;;;;;;;10.80;2.70;;;;;;;19.56;69.91;101306.03;5061207;28;20423;-68
2022/08/02 05:31:20;;;;;;;7.93;2.75;;;;;;;19.65;69.84;101317.06;5057572;28;20052;-68
2022/08/02 05:33:48;;;;;;;9.02;2.35;;;;;;;19.49;69.94;101311.44;5073926;28;20079;-68
2022/08/02 05:36:15;;;;;;;5.32;2.28;;;;;;;19.37;70.16;101321.91;5055765;28;20052;-68
2022/08/02 05:38:43;;;;;;;7.60;2.78;;;;;;;19.39;70.78;101319.53;5080055;28;20044;-68
2022/08/02 05:41:18;;;;;;;5.22;2.53;;;;;;;19.50;70.31;101315.88;5083403;28;20407;-67
2022/08/02 05:43:46;;;;;;;8.02;2.95;;;;;;;19.52;70.25;101318.31;5058008;28;20143;-67
2022/08/02 05:46:14;;;;;;;7.47;2.60;;;;;;;19.68;69.65;101321.94;5072272;28;20060;-64
2022/08/02 05:48:43;;;;;;;7.18;2.50;;;;;;;19.83;70.03;101324.72;5081775;28;20044;-64
2022/08/02 05:51:13;;;;;;;11.77;2.80;;;;;;;20.14;67.40;101323.88;5056681;28;20518;-67
2022/08/02 05:53:50;;;;;;;8.65;2.92;;;;;;;20.69;65.85;101317.19;5071501;28;20052;-64
2022/08/02 05:56:32;;;;;;;5.90;2.47;;;;;;;21.18;63.41;101307.84;5070124;28;20058;-64
2022/08/02 05:59:03;;;;;;;11.40;2.63;;;;;;;21.54;62.45;101306.53;5087532;28;20048;-65
2022/08/02 06:01:35;;;;;;;7.45;2.42;;;;;;;21.37;62.22;101309.00;5053994;28;20036;-63
2022/08/02 06:04:08;;;;;;;7.63;2.33;;;;;;;21.46;61.63;101312.38;5070352;28;20056;-64
2022/08/02 06:06:36;;;;;;;6.97;2.63;;;;;;;20.55;64.27;101308.47;5069968;28;20052;-63
2022/08/02 06:09:09;;;;;;;5.80;2.45;;;;;;;20.20;65.87;101308.47;5069583;28;20045;-64
2022/08/02 06:11:44;;;;;;;7.18;2.50;;;;;;;20.08;66.45;101314.16;5072130;28;20051;-63
2022/08/02 06:14:32;;;;;;;7.20;2.60;;;;;;;20.42;65.65;101315.38;5078702;28;20044;-64
2022/08/02 06:17:03;;;;;;;6.63;2.60;;;;;;;20.74;64.29;101306.53;5089352;28;20052;-64
2022/08/02 06:19:31;;;;;;;7.70;2.25;;;;;;;21.18;63.40;101302.25;5071806;28;20059;-63
2022/08/02 06:22:18;;;;;;;8.15;2.72;;;;;;;21.68;61.42;101295.56;5058252;28;20052;-66
2022/08/02 06:25:06;;;;;;;5.82;2.40;;;;;;;21.79;60.54;101302.19;5049977;28;20075;-64
2022/08/02 06:27:54;;;;;;;6.80;2.40;;;;;;;21.87;60.15;101303.94;5071228;28;20060;-65
2022/08/02 06:30:21;;;;;;;4.65;2.28;;;;;;;21.75;60.28;101306.09;5073952;28;20051;-63
2022/08/02 06:32:50;;;;;;;9.23;2.55;;;;;;;20.96;62.82;101310.56;5070066;28;20048;-62
2022/08/02 06:35:18;;;;;;;10.65;2.58;;;;;;;21.46;61.54;101323.59;5073819;28;20551;-62
2022/08/02 06:37:55;;;;;;;7.28;2.75;;;;;;;21.90;60.45;101316.38;5075634;28;20056;-64
2022/08/02 06:40:35;;;;;;;10.02;2.95;;;;;;;21.88;59.84;101313.97;5065230;28;20618;-63
2022/08/02 06:43:08;;;;;;;11.23;3.00;;;;;;;20.75;63.87;101322.13;5065559;28;20037;-64
2022/08/02 06:45:35;;;;;;;7.53;3.03;;;;;;;20.44;65.02;101327.00;5068179;28;20538;-65
2022/08/02 06:48:03;;;;;;;6.72;3.10;;;;;;;20.70;64.80;101324.41;5076335;28;20041;-65
2022/08/02 06:50:31;;;;;;;6.90;3.13;;;;;;;21.12;63.43;101331.75;5074524;28;20044;-64
2022/08/02 06:53:00;;;;;;;8.00;2.67;;;;;;;21.61;61.81;101334.69;5075108;28;20059;-63
2022/08/02 06:55:28;;;;;;;7.50;2.80;;;;;;;21.65;60.87;101335.59;5076197;28;20515;-64
2022/08/02 06:57:55;;;;;;;5.78;2.85;;;;;;;21.22;62.25;101331.16;5077104;28;20049;-64
2022/08/02 07:00:23;;;;;;;6.72;2.95;;;;;;;21.15;63.06;101339.41;5057029;28;20431;-64
2022/08/02 07:02:51;;;;;;;5.07;2.67;;;;;;;21.22;62.71;101341.53;5070878;28;20045;-66
2022/08/02 07:05:18;;;;;;;14.52;3.38;;;;;;;21.57;61.74;101341.41;5091398;28;20052;-64
2022/08/02 07:07:45;;;;;;;8.13;2.95;;;;;;;21.83;60.48;101336.72;5075798;28;20048;-63
2022/08/02 07:10:13;;;;;;;9.20;2.80;;;;;;;21.73;61.04;101337.31;5074350;28;20056;-64
2022/08/02 07:12:41;;;;;;;9.60;4.13;;;;;;;21.77;60.89;101338.19;5058382;28;20053;-64
2022/08/02 07:15:11;;;;;;;7.85;3.08;;;;;;;21.33;61.91;101341.75;5074667;28;20044;-63
2022/08/02 07:17:38;;;;;;;11.88;3.13;;;;;;;21.54;61.52;101342.97;5073000;28;20060;-64
2022/08/02 07:20:06;;;;;;;10.60;3.08;;;;;;;21.07;62.64;101332.06;5072425;28;20052;-67
2022/08/02 07:22:34;;;;;;;11.48;2.97;;;;;;;21.59;61.45;101336.25;5072021;28;20063;-63
2022/08/02 07:25:02;;;;;;;10.77;3.15;;;;;;;21.96;60.76;101326.94;5073078;28;20055;-64
2022/08/02 07:27:30;;;;;;;12.82;3.50;;;;;;;22.30;59.50;101330.66;5069714;28;20408;-63
2022/08/02 07:29:58;;;;;;;8.68;3.03;;;;;;;22.50;57.96;101339.78;5071229;28;20060;-64
2022/08/02 07:32:28;;;;;;;16.85;3.78;;;;;;;22.40;58.35;101341.28;5068912;28;20539;-65
2022/08/02 07:34:56;;;;;;;13.05;3.30;;;;;;;21.83;59.47;101341.50;5073889;28;20600;-63
2022/08/02 07:37:30;;;;;;;7.63;2.90;;;;;;;21.85;59.65;101342.75;5078895;28;20055;-63
2022/08/02 07:40:17;;;;;;;7.30;3.22;;;;;;;22.12;59.24;101343.63;5073736;28;20048;-64
2022/08/02 07:42:51;;;;;;;11.00;3.17;;;;;;;22.37;58.23;101346.81;5072698;28;20043;-63
2022/08/02 07:45:26;;;;;;;11.65;3.72;;;;;;;22.06;59.45;101343.13;5073645;28;20049;-63
2022/08/02 07:47:53;;;;;;;18.27;3.00;;;;;;;22.68;57.78;101344.53;5071724;28;20057;-64
2022/08/02 07:50:21;;;;;;;13.13;3.33;;;;;;;22.23;58.32;101350.19;5070560;28;20506;-64
2022/08/02 07:52:49;;;;;;;7.90;2.78;;;;;;;22.60;57.71;101347.59;5070933;28;20041;-63
2022/08/02 07:55:25;;;;;;;10.75;3.25;;;;;;;23.00;57.21;101342.94;5085605;28;20590;-63
2022/08/02 07:58:08;;;;;;;14.13;2.85;;;;;;;22.94;56.52;101336.06;5074491;28;20060;-63
2022/08/02 08:00:40;;;;;;;7.45;2.67;;;;;;;22.93;56.49;101342.03;5072014;28;20392;-63
2022/08/02 08:03:08;;;;;;;7.70;3.00;;;;;;;23.23;57.22;101338.00;5071759;28;20391;-64
2022/08/02 08:05:35;;;;;;;17.33;3.65;;;;;;;23.55;55.62;101338.38;5072694;28;20056;-63
2022/08/02 08:08:04;;;;;;;8.43;2.83;;;;;;;23.98;54.03;101337.59;5072524;28;20060;-62
2022/08/02 08:10:32;;;;;;;12.13;3.00;;;;;;;24.05;53.08;101320.78;5071512;28;20056;-64
2022/08/02 08:12:59;;;;;;;10.85;2.72;;;;;;;24.35;53.04;101329.88;5070942;28;20047;-64
2022/08/02 08:15:26;;;;;;;12.63;3.50;;;;;;;24.42;51.77;101329.94;5071674;28;20052;-64
2022/08/02 08:17:54;;;;;;;9.38;2.78;;;;;;;24.72;51.57;101321.28;5071485;28;20044;-63
2022/08/02 08:20:21;;;;;;;11.10;3.03;;;;;;;23.96;52.35;101322.28;5071275;28;20048;-63
2022/08/02 08:22:49;;;;;;;10.73;2.72;;;;;;;23.51;54.07;101326.28;5071550;28;20830;-63
2022/08/02 08:25:16;;;;;;;13.45;3.85;;;;;;;23.13;54.96;101329.44;5071502;28;20059;-63
2022/08/02 08:27:51;;;;;;;10.40;3.30;;;;;;;23.09;55.58;101328.59;5072206;28;20377;-63
2022/08/02 08:30:20;;;;;;;13.20;3.10;;;;;;;23.64;54.28;101330.41;5074219;28;20561;-64
2022/08/02 08:32:48;;;;;;;8.43;3.10;;;;;;;23.83;53.85;101330.22;5066652;28;20052;-61
2022/08/02 08:35:15;;;;;;;10.50;2.92;;;;;;;24.13;52.55;101322.44;5086429;28;20435;-63
2022/08/02 08:37:43;;;;;;;12.65;3.53;;;;;;;24.23;51.80;101318.91;5066726;28;20059;-62
2022/08/02 08:40:11;;;;;;;13.65;3.58;;;;;;;23.76;53.15;101327.34;5071741;28;20052;-62
2022/08/02 08:42:45;;;;;;;10.77;3.45;;;;;;;23.30;54.79;101331.69;5069974;28;20049;-63
2022/08/02 08:45:12;;;;;;;12.55;3.75;;;;;;;23.92;53.44;101308.19;5067055;28;20049;-63
2022/08/02 08:47:41;;;;;;;10.98;3.58;;;;;;;24.04;52.95;101309.94;5069436;28;20497;-63
2022/08/02 08:50:20;;;;;;;14.70;3.15;;;;;;;24.32;52.19;101308.09;5071441;28;20459;-63
2022/08/02 08:53:02;;;;;;;12.43;3.63;;;;;;;24.47;51.63;101309.84;5074456;28;20040;-63
2022/08/02 08:55:31;;;;;;;10.60;3.33;;;;;;;24.76;50.99;101305.19;5069851;28;20506;-64
2022/08/02 08:58:00;;;;;;;9.43;3.40;;;;;;;24.89;50.58;101305.63;5088922;28;20047;-63
2022/08/02 09:00:34;;;;;;;11.50;3.40;;;;;;;24.83;50.59;101308.03;5070431;28;20071;-62
2022/08/02 09:03:03;;;;;;;10.15;2.97;;;;;;;24.97;50.31;101307.28;5071870;28;20122;-63
2022/08/02 09:05:33;;;;;;;14.23;3.08;;;;;;;24.15;52.05;101308.81;5086812;28;20052;-63
2022/08/02 09:08:01;;;;;;;10.23;3.15;;;;;;;24.71;50.57;101307.56;5071544;28;20064;-63
2022/08/02 09:10:37;;;;;;;6.07;3.00;;;;;;;24.48;51.22;101305.81;5053502;28;20055;-62
2022/08/02 09:13:11;;;;;;;6.47;2.85;;;;;;;24.62;50.98;101307.09;5072786;28;20052;-62
2022/08/02 09:16:03;;;;;;;8.38;2.78;;;;;;;25.02;49.84;101309.72;5074010;28;20053;-63
2022/08/02 09:18:44;;;;;;;9.13;3.42;;;;;;;25.04;49.51;101305.28;5064352;28;20052;-65
2022/08/02 09:21:16;;;;;;;10.98;4.18;;;;;;;24.65;50.56;101304.31;5075239;28;20063;-64
2022/08/02 09:23:50;;;;;;;5.85;3.17;;;;;;;24.65;50.37;101304.31;5082136;28;20067;-62
2022/08/02 09:26:19;;;;;;;10.77;3.38;;;;;;;25.16;49.64;101295.66;5073777;28;20059;-62
2022/08/02 09:28:51;;;;;;;8.30;2.90;;;;;;;25.30;49.27;101295.69;5072424;28;20051;-63
2022/08/02 09:31:21;;;;;;;8.32;3.28;;;;;;;25.44;48.50;101287.31;5053446;28;20049;-63
2022/08/02 09:33:53;;;;;;;11.00;2.95;;;;;;;25.68;48.42;101297.03;5070396;28;20056;-63
2022/08/02 09:36:22;;;;;;;8.02;2.80;;;;;;;25.49;47.93;101296.19;5084148;28;20063;-64
2022/08/02 09:38:58;;;;;;;8.25;3.10;;;;;;;25.40;48.87;101295.75;5073312;28;20078;-65
2022/08/02 09:41:28;;;;;;;6.32;2.63;;;;;;;25.66;48.55;101285.31;5072420;28;20064;-64
2022/08/02 09:43:57;;;;;;;11.00;2.90;;;;;;;25.88;48.33;101284.09;5069202;28;20044;-63
2022/08/02 09:46:43;;;;;;;9.73;2.65;;;;;;;25.90;47.45;101284.53;5066472;28;20606;-63
2022/08/02 09:49:13;;;;;;;11.65;3.03;;;;;;;26.03;47.05;101283.72;5068524;28;20048;-65
2022/08/02 09:51:50;;;;;;;;;;;;;;;26.07;47.03;101280.91;5072282;28;20056;-64
2022/08/02 09:54:18;;;;;;;7.63;2.78;;;;;;;26.02;47.42;101273.63;5078672;28;19925;-64
2022/08/02 09:56:46;;;;;;;8.45;3.15;;;;;;;25.79;47.21;101278.88;5068262;28;20041;-64
2022/08/02 09:59:16;;;;;;;7.93;2.80;;;;;;;26.04;47.43;101274.06;5086839;28;20063;-63
2022/08/02 10:01:45;;;;;;;6.85;2.70;;;;;;;25.46;47.76;101273.59;5074444;28;20063;-63
2022/08/02 10:04:29;;;;;;;6.68;2.42;;;;;;;25.58;48.24;101269.59;5059417;28;20047;-63
2022/08/02 10:06:58;;;;;;;6.25;2.65;;;;;;;25.96;47.22;101263.94;5072558;28;20057;-64
2022/08/02 10:09:27;;;;;;;7.90;2.78;;;;;;;25.99;47.62;101268.81;5072932;28;20060;-64
2022/08/02 10:11:56;;;;;;;10.18;3.10;;;;;;;26.06;46.77;101268.81;5068820;28;20045;-63
2022/08/02 10:14:24;;;;;;;8.45;2.60;;;;;;;26.14;46.93;101269.59;5068929;28;20526;-64
2022/08/02 10:16:52;;;;;;;10.38;2.63;;;;;;;26.05;46.55;101264.38;5068837;28;20056;-65
2022/08/02 10:19:19;;;;;;;6.30;2.35;;;;;;;26.16;46.30;101261.53;5086270;28;20051;-64
2022/08/02 10:22:11;;;;;;;10.10;2.78;;;;;;;25.65;47.35;101264.75;5062603;28;20059;-65
2022/08/02 10:24:40;;;;;;;5.22;2.97;;;;;;;25.42;48.20;101267.97;5086540;28;21578;-68
2022/08/02 10:27:19;;;;;;;8.18;3.78;;;;;;;25.86;47.40;101266.75;5072857;28;20503;-64
2022/08/02 10:29:49;;;;;;;6.05;3.03;;;;;;;25.99;46.98;101259.50;5071141;28;20055;-66
2022/08/02 10:32:32;;;;;;;10.35;2.60;;;;;;;26.26;46.45;101253.03;5069047;28;20048;-69
2022/08/02 10:35:03;;;;;;;8.52;2.95;;;;;;;26.14;45.78;101259.13;5052981;28;20045;-66
2022/08/02 10:37:46;;;;;;;6.28;2.75;;;;;;;25.87;47.42;101266.38;5084907;28;20059;-63
2022/08/02 10:40:25;;;;;;;9.55;3.00;;;;;;;25.70;47.16;101255.88;5072121;28;20522;-63
2022/08/02 10:42:54;;;;;;;9.23;3.13;;;;;;;25.82;47.12;101254.69;5065369;28;20162;-71
2022/08/02 10:45:22;;;;;;;7.15;2.83;;;;;;;25.86;47.11;101255.47;5053359;28;20045;-66
2022/08/02 10:48:09;;;;;;;5.95;2.83;;;;;;;25.89;46.15;101255.47;5072489;28;20051;-66
2022/08/02 10:50:45;;;;;;;5.85;2.10;;;;;;;26.36;44.92;101259.88;5070621;28;20047;-65
2022/08/02 10:53:27;;;;;;;5.85;2.00;;;;;;;26.60;44.41;101250.53;5048465;28;20059;-64
2022/08/02 10:55:57;;;;;;;10.35;5.57;;;;;;;26.42;44.02;101250.59;5071468;28;20059;-63
2022/08/02 10:58:32;;;;;;;15.68;6.95;;;;;;;26.55;43.90;101246.09;5076993;28;20053;-65
2022/08/02 11:01:04;;;;;;;6.97;3.22;;;;;;;26.74;43.61;101244.03;5079831;28;20675;-63
2022/08/02 11:03:40;;;;;;;6.28;2.90;;;;;;;26.37;43.24;101245.34;5074039;28;20040;-65
2022/08/02 11:06:10;;;;;;;3.63;2.20;;;;;;;26.48;43.73;101243.28;5078172;28;20048;-65
2022/08/02 11:09:24;;;;;;;12.77;7.28;;;;;;;26.51;42.51;101242.47;5056713;28;20056;-66
2022/08/02 11:12:07;;;;;;;6.88;2.47;;;;;;;26.41;42.54;101243.31;5068320;28;20055;-64
2022/08/02 11:14:38;;;;;;;7.85;1.83;;;;;;;26.45;42.63;101232.81;5075536;28;20048;-65
2022/08/02 11:17:09;;;;;;;4.43;1.95;;;;;;;26.51;42.05;101236.03;5058835;28;20052;-65
2022/08/02 11:20:11;;;;;;;6.22;2.42;;;;;;;26.45;41.50;101244.09;5079443;28;20044;-65
2022/08/02 11:22:39;;;;;;;4.05;2.00;;;;;;;26.21;42.72;101236.50;5068580;28;20050;-65
2022/08/02 11:25:21;;;;;;;3.95;1.70;;;;;;;26.45;42.03;101229.16;5074002;28;20449;-64
2022/08/02 11:27:58;;;;;;;6.78;1.90;;;;;;;26.95;41.13;101224.97;5075914;28;20052;-65
2022/08/02 11:30:25;;;;;;;3.58;1.90;;;;;;;27.28;40.30;101227.16;5072087;28;20059;-64
2022/08/02 11:32:58;;;;;;;3.45;1.88;;;;;;;27.13;39.85;101222.03;5072689;28;20510;-66
2022/08/02 11:35:33;;;;;;;3.67;1.80;;;;;;;27.57;39.23;101220.09;5068524;28;20056;-66
2022/08/02 11:38:14;;;;;;;6.43;1.77;;;;;;;27.60;39.18;101221.28;5077480;28;20055;-65
2022/08/02 11:40:43;;;;;;;5.15;2.00;;;;;;;27.89;39.04;101214.16;5074752;28;20056;-66
2022/08/02 11:43:26;;;;;;;18.67;11.45;;;;;;;28.22;38.00;101202.09;5074414;28;20048;-65
2022/08/02 11:45:54;;;;;;;5.53;2.60;;;;;;;28.27;37.49;101209.31;5067640;28;20053;-65
2022/08/02 11:48:36;;;;;;;3.38;1.65;;;;;;;28.66;36.59;101201.19;5073240;28;20079;-65
2022/08/02 11:51:09;;;;;;;5.90;1.70;;;;;;;28.30;37.35;101199.97;5070862;28;20074;-67
2022/08/02 11:53:56;;;;;;;13.15;1.90;;;;;;;28.36;37.90;101201.94;5072486;28;20045;-65
2022/08/02 11:56:28;;;;;;;6.85;2.38;;;;;;;28.55;37.27;101198.50;5070300;28;20048;-65